メインページ
METAR-TAF:

METAR-TAF

空港 :

トンコンティン国際空港

テグシガルパ, ホンジュラス

緯度: 14-03N, 経度: 087-13W, 海抜: 994m

現時点の気象観測

当レポートは1時間8分前の23:00(UTC)に作成
の風 8kt
気温 24°C
湿度 54%
気圧 1015 hPa
視程10km以上
高度3000ftの雲は散在している
高度25000ftの千切れ雲あり

METAR: MHTG 242300Z 08008KT 9999 SCT030 BKN250 24/14 Q1015 A2997 NOSIG

時間: 18:08 (00:08 UTC)

予報

当レポートは1時間43分前の22:25(UTC)に作成
予報は25日の 00時(UTC)から 25日の 24時(UTC)まで有効
の風 4kt
視程10km以上
高度2800ftの雲は散在している
高度9000ftの雲は散在している
25日の 08時(UTC)から 25日の 10時(UTC)まで徐々に
視程: 7000m
高度600ftの雲はほとんどない
高度2400ftの雲は散在している
近辺でにわか雨
25日の 13時(UTC)から 25日の 15時(UTC)まで徐々に
視程10km以上
高度3000ftの雲は散在している
25日の 22時(UTC)から 25日の 24時(UTC)まで徐々に
の風 10kt
視程: 8000m
高度2600ftの雲は散在している, 塔状積雲.
高度9000ftの雲は散在している
近辺でにわか雨

TAF: MHTG 242225Z 2500/2524 36004KT 9999 SCT028 SCT090 TX30/2520Z TN17/2512Z BECMG 2508/2510 7000 VCSH FEW006 SCT024 BECMG 2513/2515 9999 NSW SCT030 BECMG 2522/2524 09010KT 8000 VCSH SCT026TCU SCT090

4,000以上の空港の気象観測と天気予報(METAR報とTAF報)

利用可能な観測所は地図上に黄色い丸と赤い丸で示す。

丸の上にカーソルを重ねると観測所名を参照できる。

次にクリックすると気象観測と天気予報を参照できる。

マップの切り替え:黒色「×」印の緑ボタンをクリックして拡大、「-」印の緑ボタンをクリックして縮小、緑色の三角印をクリックして隣りの地図に切り替え


METAR-TAF: